Time;durP1;ratioP1;P1;durP2;ratioP2;P2;SDS_P1;SDS_P2;PMS_P1;PMS_P2;Temp;Humidity;BMP_temperature;BMP_pressure;BME280_temperature;BME280_humidity;BME280_pressure;Samples;Min_cycle;Max_cycle;Signal;HPM_P1;HPM_P2
2023/02/11 00:00:26;;;;;;;11.65;4.72;;;;;;;-3.90;89.42;101968.59;6271415;28;20477;-75
2023/02/11 00:03:27;;;;;;;6.57;4.00;;;;;;;-4.02;88.38;101969.09;6271399;28;20068;-74
2023/02/11 00:06:29;;;;;;;12.95;4.63;;;;;;;-4.05;90.61;101966.47;6272417;28;20036;-75
2023/02/11 00:09:30;;;;;;;3.92;3.30;;;;;;;-4.11;90.84;101967.16;6269624;28;20431;-75
2023/02/11 00:12:31;;;;;;;7.72;3.53;;;;;;;-4.12;91.26;101970.53;6252633;28;20099;-75
2023/02/11 00:15:32;;;;;;;11.38;4.70;;;;;;;-4.14;90.49;101974.72;6271163;28;20485;-75
2023/02/11 00:18:35;;;;;;;4.70;3.10;;;;;;;-4.14;90.46;101976.38;6266795;28;20045;-75
2023/02/11 00:21:36;;;;;;;3.20;2.42;;;;;;;-4.09;89.84;101985.91;6247533;28;20101;-75
2023/02/11 00:24:37;;;;;;;8.18;4.00;;;;;;;-4.13;89.86;101973.03;6247283;28;20044;-75
2023/02/11 00:27:37;;;;;;;6.43;4.65;;;;;;;-4.16;88.91;101968.72;6247245;28;20461;-74
2023/02/11 00:30:38;;;;;;;7.20;4.55;;;;;;;-4.10;88.71;101976.53;6246029;28;20044;-74
2023/02/11 00:33:39;;;;;;;10.05;5.32;;;;;;;-4.06;88.58;101973.25;6246741;28;20077;-75
2023/02/11 00:36:40;;;;;;;13.90;6.13;;;;;;;-4.06;88.84;101955.41;6247177;28;20456;-75
2023/02/11 00:39:41;;;;;;;9.70;4.85;;;;;;;-4.14;88.71;101951.78;6247226;28;20099;-75
2023/02/11 00:42:42;;;;;;;3.40;3.05;;;;;;;-4.19;88.86;101950.75;6245756;28;20049;-74
2023/02/11 00:45:43;;;;;;;9.40;4.47;;;;;;;-4.29;89.76;101949.59;6290588;28;20045;-74
2023/02/11 00:48:44;;;;;;;12.07;4.05;;;;;;;-4.25;90.11;101950.56;6270485;28;20471;-75
2023/02/11 00:51:49;;;;;;;5.22;3.70;;;;;;;-4.28;90.05;101951.34;6270324;28;20091;-75
2023/02/11 00:54:50;;;;;;;6.88;3.35;;;;;;;-4.26;89.69;101944.63;6271436;28;20049;-75
2023/02/11 00:57:51;;;;;;;9.02;5.63;;;;;;;-4.23;89.09;101945.53;6271893;28;20044;-75
2023/02/11 01:00:53;;;;;;;11.10;5.93;;;;;;;-4.30;89.99;101944.50;6270145;28;20330;-74
2023/02/11 01:03:54;;;;;;;5.82;3.15;;;;;;;-4.35;89.90;101941.78;6271388;28;20424;-74
2023/02/11 01:06:55;;;;;;;14.32;4.35;;;;;;;-4.39;90.08;101939.94;6271085;28;20133;-75
2023/02/11 01:09:55;;;;;;;16.20;7.82;;;;;;;-4.34;89.11;101927.38;6271536;28;20041;-74
2023/02/11 01:13:00;;;;;;;5.78;3.13;;;;;;;-4.37;89.93;101937.47;6271104;28;20037;-74
2023/02/11 01:16:01;;;;;;;8.52;4.53;;;;;;;-4.41;90.20;101939.03;6271121;28;20048;-74
2023/02/11 01:19:01;;;;;;;6.45;3.67;;;;;;;-4.35;89.86;101944.31;6269870;28;20044;-74
2023/02/11 01:22:03;;;;;;;8.95;5.00;;;;;;;-4.38;90.15;101928.09;6269779;28;20499;-74
2023/02/11 01:25:05;;;;;;;12.30;4.93;;;;;;;-4.35;89.64;101933.28;6269617;28;20045;-74
2023/02/11 01:28:14;;;;;;;5.03;3.55;;;;;;;-4.51;90.24;101917.53;6270057;28;20801;-74
2023/02/11 01:31:15;;;;;;;6.65;3.17;;;;;;;-4.49;91.00;101913.34;6271226;28;20044;-79
2023/02/11 01:34:15;;;;;;;7.05;4.05;;;;;;;-4.48;90.95;101916.75;6271290;28;20037;-78
2023/02/11 01:37:16;;;;;;;7.35;4.68;;;;;;;-4.54;91.53;101906.38;6269775;28;20053;-78
2023/02/11 01:40:17;;;;;;;5.63;3.58;;;;;;;-4.66;92.19;101900.06;6269765;28;20124;-78
2023/02/11 01:43:18;;;;;;;4.47;3.10;;;;;;;-4.63;91.62;101888.25;6270032;28;20528;-78
2023/02/11 01:46:29;;;;;;;5.57;3.05;;;;;;;-4.51;91.57;101899.69;6275890;28;20041;-78
2023/02/11 01:49:32;;;;;;;18.38;6.68;;;;;;;-4.58;91.53;101902.00;6264412;28;20076;-78
2023/02/11 01:52:39;;;;;;;4.38;3.13;;;;;;;-4.55;91.82;101902.97;6251201;28;20045;-78
2023/02/11 01:59:07;;;;;;;7.28;1.95;;;;;;;-4.62;92.12;101890.00;6251110;28;20124;-78
2023/02/11 02:02:12;;;;;;;5.28;2.65;;;;;;;-4.67;92.24;101884.75;6250019;28;20502;-78
2023/02/11 02:05:38;;;;;;;5.80;3.38;;;;;;;-4.72;92.94;101881.19;6249859;28;20034;-78
2023/02/11 02:08:59;;;;;;;17.33;3.90;;;;;;;-4.86;92.99;101885.84;6250857;28;20177;-77
2023/02/11 02:12:00;;;;;;;3.65;3.30;;;;;;;-4.90;93.97;101876.38;6250771;28;20038;-78
2023/02/11 02:15:19;;;;;;;5.32;3.08;;;;;;;-4.74;92.97;101877.72;6249546;28;20041;-78
2023/02/11 02:18:58;;;;;;;5.28;2.72;;;;;;;-4.75;92.58;101869.22;6249345;28;20053;-78
2023/02/11 02:21:59;;;;;;;6.53;2.95;;;;;;;-4.75;92.49;101871.78;6250400;28;20038;-78
2023/02/11 02:25:34;;;;;;;9.30;2.90;;;;;;;-4.79;92.19;101876.75;6249421;28;20095;-78
2023/02/11 02:28:59;;;;;;;3.17;2.42;;;;;;;-4.76;91.29;101872.59;6250386;28;20042;-78
2023/02/11 02:32:32;;;;;;;7.55;3.05;;;;;;;-4.73;91.30;101877.78;6249453;28;20037;-79
2023/02/11 02:35:58;;;;;;;6.05;3.55;;;;;;;-4.74;91.54;101870.09;6250270;28;20041;-78
2023/02/11 02:39:19;;;;;;;3.83;3.00;;;;;;;-4.86;91.93;101868.03;6249231;28;20120;-79
2023/02/11 02:42:21;;;;;;;9.95;4.00;;;;;;;-4.89;91.67;101870.50;6282303;28;20049;-79
2023/02/11 02:45:22;;;;;;;7.20;2.90;;;;;;;-4.92;92.34;101862.75;6248764;28;20042;-79
2023/02/11 02:48:28;;;;;;;10.82;4.10;;;;;;;-4.90;91.81;101868.75;6249799;28;20405;-79
2023/02/11 02:51:38;;;;;;;8.27;3.05;;;;;;;-4.88;91.73;101862.00;6232047;28;20463;-79
2023/02/11 02:55:05;;;;;;;3.50;2.60;;;;;;;-5.02;92.50;101855.63;6248130;28;20689;-79
2023/02/11 02:58:29;;;;;;;3.38;1.80;;;;;;;-4.97;92.75;101849.88;6248607;28;20413;-79
2023/02/11 03:01:47;;;;;;;2.45;2.25;;;;;;;-5.03;92.60;101836.94;6249555;28;20637;-79
2023/02/11 03:05:10;;;;;;;5.43;3.47;;;;;;;-5.10;93.41;101835.91;6249719;28;20068;-79
2023/02/11 03:08:37;;;;;;;6.40;3.20;;;;;;;-5.08;93.75;101825.78;6249391;28;20099;-78
2023/02/11 03:11:39;;;;;;;7.63;4.55;;;;;;;-5.14;93.43;101825.56;6249068;28;20144;-79
2023/02/11 03:14:40;;;;;;;9.25;5.85;;;;;;;-5.15;93.29;101818.75;6249406;28;20037;-79
2023/02/11 03:17:46;;;;;;;8.80;4.57;;;;;;;-5.14;93.39;101823.03;6249384;28;20493;-79
2023/02/11 03:20:52;;;;;;;3.22;2.60;;;;;;;-5.12;93.02;101822.25;6249205;28;20409;-76
2023/02/11 03:23:55;;;;;;;3.05;2.22;;;;;;;-5.03;91.96;101825.91;6248546;28;20396;-75
2023/02/11 03:27:00;;;;;;;3.65;2.22;;;;;;;-5.13;92.68;101835.78;6246446;28;20478;-76
2023/02/11 03:30:15;;;;;;;7.65;3.58;;;;;;;-5.13;92.14;101829.84;6247662;28;20047;-75
2023/02/11 03:33:27;;;;;;;3.97;2.75;;;;;;;-5.06;91.76;101840.28;6247487;28;20037;-76
2023/02/11 03:37:27;;;;;;;9.05;4.13;;;;;;;-5.07;91.42;101837.66;6247186;28;20052;-76
2023/02/11 03:40:34;;;;;;;3.53;2.25;;;;;;;-5.13;92.09;101838.31;6181874;28;20165;-75
2023/02/11 03:43:41;;;;;;;3.53;1.45;;;;;;;-4.92;90.22;101827.97;6280282;28;20445;-75
2023/02/11 03:46:47;;;;;;;3.78;1.58;;;;;;;-4.93;89.71;101825.38;6248420;28;20053;-76
2023/02/11 03:49:50;;;;;;;12.32;3.55;;;;;;;-4.94;89.67;101821.09;6248394;28;20038;-75
2023/02/11 03:52:53;;;;;;;3.22;2.53;;;;;;;-5.01;89.29;101821.72;6247170;28;20048;-76
2023/02/11 03:55:58;;;;;;;4.43;2.40;;;;;;;-5.07;89.43;101805.44;6248102;28;20052;-76
2023/02/11 03:59:00;;;;;;;2.50;2.22;;;;;;;-5.06;89.02;101797.00;6247143;28;20120;-74
2023/02/11 04:02:00;;;;;;;5.32;2.67;;;;;;;-5.03;89.18;101816.56;6246896;28;20041;-76
2023/02/11 04:05:05;;;;;;;6.82;3.00;;;;;;;-4.96;88.54;101818.50;6246768;28;20077;-75
2023/02/11 04:08:07;;;;;;;2.33;1.98;;;;;;;-5.00;88.86;101806.50;6251713;28;20044;-75
2023/02/11 04:11:08;;;;;;;9.60;3.47;;;;;;;-5.03;88.69;101791.13;6272302;28;20071;-76
2023/02/11 04:14:08;;;;;;;6.57;3.33;;;;;;;-5.10;88.84;101776.50;6271507;28;20040;-74
2023/02/11 04:17:09;;;;;;;5.93;3.08;;;;;;;-5.22;89.39;101766.78;6257609;28;20472;-75
2023/02/11 04:20:13;;;;;;;3.08;2.30;;;;;;;-5.21;90.07;101749.84;6263183;28;20374;-75
2023/02/11 04:23:15;;;;;;;10.75;3.42;;;;;;;-5.22;90.33;101750.66;6260381;28;20072;-75
2023/02/11 04:26:16;;;;;;;3.67;2.78;;;;;;;-5.24;89.88;101765.88;6258480;28;20094;-75
2023/02/11 04:29:18;;;;;;;7.85;3.55;;;;;;;-5.12;88.62;101761.16;6270841;28;20119;-75
2023/02/11 04:32:19;;;;;;;18.98;3.78;;;;;;;-5.29;89.99;101755.56;6251063;28;20045;-75
2023/02/11 04:35:20;;;;;;;1.85;1.75;;;;;;;-5.24;89.78;101753.16;6247084;28;20119;-74
2023/02/11 04:38:22;;;;;;;6.45;2.83;;;;;;;-5.27;89.42;101742.91;6245894;28;20045;-74
2023/02/11 04:41:23;;;;;;;7.05;3.70;;;;;;;-5.35;90.06;101741.78;6245941;28;20053;-75
2023/02/11 04:44:24;;;;;;;4.28;3.00;;;;;;;-5.39;90.84;101745.06;6246779;28;20049;-74
2023/02/11 04:47:25;;;;;;;2.22;2.05;;;;;;;-5.46;90.17;101728.72;6246768;28;20038;-75
2023/02/11 04:50:26;;;;;;;3.13;2.58;;;;;;;-5.49;90.89;101736.28;6255858;28;20047;-74
2023/02/11 04:53:27;;;;;;;4.18;2.60;;;;;;;-5.44;91.44;101723.69;6271174;28;20045;-74
2023/02/11 04:56:27;;;;;;;19.13;7.80;;;;;;;-5.44;90.13;101733.88;6252712;28;20049;-74
2023/02/11 04:59:29;;;;;;;7.00;3.85;;;;;;;-5.49;90.41;101726.94;6249023;28;20064;-75
2023/02/11 05:02:30;;;;;;;3.45;2.75;;;;;;;-5.55;91.60;101728.44;6271358;28;20511;-75
2023/02/11 05:05:30;;;;;;;2.35;1.95;;;;;;;-5.60;91.78;101729.97;6259379;28;20103;-75
2023/02/11 05:08:32;;;;;;;2.05;1.63;;;;;;;-5.69;92.31;101726.31;6245105;28;20617;-75
2023/02/11 05:11:33;;;;;;;5.35;3.65;;;;;;;-5.67;92.26;101734.00;6245625;28;20037;-78
2023/02/11 05:14:33;;;;;;;10.68;3.20;;;;;;;-5.76;92.48;101716.78;6268053;28;20048;-78
2023/02/11 05:17:34;;;;;;;2.08;1.83;;;;;;;-5.57;91.89;101742.78;6265474;28;20047;-78
2023/02/11 05:20:37;;;;;;;2.67;2.05;;;;;;;-5.71;92.82;101748.28;6270263;28;20041;-78
2023/02/11 05:23:39;;;;;;;3.88;2.13;;;;;;;-5.67;92.23;101747.56;6270400;28;20041;-78
2023/02/11 05:26:42;;;;;;;5.50;2.58;;;;;;;-5.60;92.68;101757.94;6269990;28;20037;-78
2023/02/11 05:29:43;;;;;;;5.40;2.85;;;;;;;-5.49;91.25;101776.97;6269949;28;20045;-78
2023/02/11 05:32:44;;;;;;;4.75;2.90;;;;;;;-5.40;90.23;101774.69;6270062;28;20132;-78
2023/02/11 05:35:47;;;;;;;3.17;2.00;;;;;;;-5.33;89.86;101776.66;6271084;28;20045;-78
2023/02/11 05:38:49;;;;;;;4.50;3.33;;;;;;;-5.40;90.18;101782.34;6270215;28;20456;-78
2023/02/11 05:41:51;;;;;;;20.50;3.53;;;;;;;-5.43;90.22;101778.84;6271416;28;20136;-78
2023/02/11 05:44:51;;;;;;;4.82;1.73;;;;;;;-5.53;89.72;101772.59;6271040;28;20174;-78
2023/02/11 05:47:52;;;;;;;5.22;2.95;;;;;;;-5.54;91.36;101774.28;6269623;28;20041;-78
2023/02/11 05:50:53;;;;;;;3.47;2.53;;;;;;;-5.41;90.34;101779.78;6271040;28;20044;-78
2023/02/11 05:53:54;;;;;;;9.52;5.10;;;;;;;-5.49;91.40;101787.16;6271018;28;20497;-78
2023/02/11 05:56:55;;;;;;;4.97;2.67;;;;;;;-5.61;90.86;101784.19;6271009;28;20037;-78
2023/02/11 05:59:56;;;;;;;7.57;3.50;;;;;;;-5.53;91.09;101778.53;6270878;28;20460;-78
2023/02/11 06:02:56;;;;;;;3.92;2.88;;;;;;;-5.47;90.43;101780.44;6271097;28;20552;-78
2023/02/11 06:05:57;;;;;;;2.70;2.50;;;;;;;-5.59;90.80;101769.84;6265913;28;20045;-78
2023/02/11 06:08:58;;;;;;;4.40;2.53;;;;;;;-5.67;91.95;101754.34;6244738;28;20045;-78
2023/02/11 06:11:59;;;;;;;5.43;2.08;;;;;;;-5.62;92.55;101752.81;6245391;28;20641;-78
2023/02/11 06:15:02;;;;;;;2.97;2.30;;;;;;;-5.52;92.03;101762.47;6244506;28;20041;-75
2023/02/11 06:18:04;;;;;;;3.15;2.50;;;;;;;-5.60;92.23;101758.81;6257348;28;20045;-75
2023/02/11 06:21:09;;;;;;;2.65;2.10;;;;;;;-5.47;91.81;101757.53;6265008;28;20034;-75
2023/02/11 06:24:11;;;;;;;3.30;2.15;;;;;;;-5.45;91.72;101757.59;6260036;28;20421;-75
2023/02/11 06:27:12;;;;;;;4.95;3.22;;;;;;;-5.42;92.08;101753.44;6268571;28;20071;-75
2023/02/11 06:30:13;;;;;;;3.47;3.13;;;;;;;-5.23;90.45;101754.00;6264898;28;20059;-75
2023/02/11 06:33:14;;;;;;;3.65;2.72;;;;;;;-5.16;90.37;101753.41;6249029;28;20490;-75
2023/02/11 06:36:18;;;;;;;3.28;2.22;;;;;;;-5.16;90.42;101743.22;6251237;28;20044;-75
2023/02/11 06:39:19;;;;;;;4.57;3.08;;;;;;;-5.21;90.84;101749.84;6249963;28;20489;-78
2023/02/11 06:42:20;;;;;;;4.93;4.22;;;;;;;-5.13;91.34;101748.38;6250997;28;20098;-78
2023/02/11 06:45:23;;;;;;;2.67;2.42;;;;;;;-5.04;90.43;101727.41;6249460;28;20441;-78
2023/02/11 06:48:24;;;;;;;4.30;3.50;;;;;;;-4.96;89.93;101741.25;6253011;28;20092;-78
2023/02/11 06:51:25;;;;;;;2.10;1.83;;;;;;;-4.87;89.17;101739.84;6274932;28;20037;-78
2023/02/11 06:54:26;;;;;;;4.07;2.92;;;;;;;-4.83;89.40;101738.25;6264795;28;20041;-78
2023/02/11 06:57:27;;;;;;;6.97;3.83;;;;;;;-4.77;89.27;101725.69;6248861;28;20037;-78
2023/02/11 07:00:28;;;;;;;5.50;3.05;;;;;;;-4.69;89.76;101720.81;6257960;28;20064;-75
2023/02/11 07:03:28;;;;;;;5.72;2.33;;;;;;;-4.60;88.67;101717.66;6260595;28;20037;-78
2023/02/11 07:06:29;;;;;;;3.90;2.42;;;;;;;-4.49;89.02;101722.25;6269792;28;20045;-78
2023/02/11 07:09:30;;;;;;;9.13;3.70;;;;;;;-4.46;88.66;101709.56;6262661;28;20452;-78
2023/02/11 07:12:31;;;;;;;7.85;4.25;;;;;;;-4.44;88.64;101712.16;6252914;28;20044;-78
2023/02/11 07:15:32;;;;;;;2.85;2.22;;;;;;;-4.26;88.23;101706.72;6262582;28;20045;-78
2023/02/11 07:18:33;;;;;;;10.27;3.90;;;;;;;-4.21;88.40;101714.47;6260028;28;20052;-78
2023/02/11 07:21:36;;;;;;;2.72;2.22;;;;;;;-4.02;87.57;101690.28;6251548;28;20477;-77
2023/02/11 07:24:39;;;;;;;5.10;3.85;;;;;;;-3.87;86.62;101688.09;6253951;28;20067;-77
2023/02/11 07:27:40;;;;;;;5.43;4.10;;;;;;;-3.76;86.52;101684.13;6254963;28;20045;-77
2023/02/11 07:30:41;;;;;;;3.88;2.75;;;;;;;-3.65;86.88;101687.78;6252632;28;20068;-78
2023/02/11 07:33:44;;;;;;;0.90;0.90;;;;;;;-3.67;86.96;101692.00;6251132;28;20120;-77
2023/02/11 07:36:45;;;;;;;10.93;5.00;;;;;;;-3.58;87.19;101687.94;6257089;28;20148;-77
2023/02/11 07:39:46;;;;;;;6.57;2.72;;;;;;;-3.67;87.32;101689.44;6266521;28;20481;-77
2023/02/11 07:42:47;;;;;;;3.55;2.60;;;;;;;-3.65;86.94;101694.59;6256473;28;20088;-78
2023/02/11 07:45:48;;;;;;;2.75;2.28;;;;;;;-3.53;87.86;101697.44;6266301;28;20397;-78
2023/02/11 07:48:50;;;;;;;8.38;2.75;;;;;;;-3.50;86.93;101681.31;6252976;28;20409;-78
2023/02/11 07:51:50;;;;;;;8.75;4.57;;;;;;;-3.52;87.36;101678.75;6253961;28;20118;-78
2023/02/11 07:54:57;;;;;;;15.85;5.15;;;;;;;-3.23;87.01;101681.09;6266674;28;20050;-78
2023/02/11 07:57:58;;;;;;;3.65;2.83;;;;;;;-3.26;86.53;101681.00;6271605;28;20451;-78
2023/02/11 08:01:08;;;;;;;3.60;3.25;;;;;;;-3.24;86.46;101675.09;6268560;28;20052;-77
2023/02/11 08:04:09;;;;;;;4.07;2.95;;;;;;;-3.12;86.96;101687.28;6253361;28;20099;-77
2023/02/11 08:07:09;;;;;;;4.65;3.13;;;;;;;-3.14;86.55;101676.16;6259957;28;20120;-77
2023/02/11 08:10:10;;;;;;;4.13;3.75;;;;;;;-3.06;86.49;101682.28;6265534;28;20037;-77
2023/02/11 08:13:11;;;;;;;3.58;3.00;;;;;;;-2.87;85.94;101687.78;6272941;28;20041;-77
2023/02/11 08:16:23;;;;;;;22.90;2.92;;;;;;;-2.52;85.93;101692.72;6267556;28;20049;-74
2023/02/11 08:19:23;;;;;;;5.13;4.40;;;;;;;-2.30;83.70;101688.88;6260235;28;20033;-74
2023/02/11 08:22:24;;;;;;;5.25;2.95;;;;;;;-2.35;84.08;101703.25;6271606;28;20048;-74
2023/02/11 08:25:28;;;;;;;4.40;3.35;;;;;;;-2.34;83.99;101713.53;6271195;28;20450;-75
2023/02/11 08:28:29;;;;;;;3.70;1.98;;;;;;;-2.37;84.48;101723.69;6272130;28;20040;-75
2023/02/11 08:31:34;;;;;;;10.23;5.13;;;;;;;-2.00;83.68;101706.44;6272028;28;20041;-75
2023/02/11 08:34:36;;;;;;;7.57;4.65;;;;;;;-1.98;83.31;101702.22;6258475;28;20053;-75
2023/02/11 08:37:39;;;;;;;4.53;3.38;;;;;;;-1.81;83.20;101702.50;6258942;28;20048;-78
2023/02/11 08:40:40;;;;;;;5.47;3.92;;;;;;;-1.66;83.12;101694.22;6272145;28;20095;-75
2023/02/11 08:43:43;;;;;;;3.75;3.00;;;;;;;-1.79;83.45;101688.03;6270682;28;20497;-75
2023/02/11 08:46:44;;;;;;;4.72;2.88;;;;;;;-1.72;84.37;101697.53;6271809;28;20110;-76
2023/02/11 08:49:45;;;;;;;9.88;4.75;;;;;;;-1.65;84.38;101708.72;6264417;28;20045;-78
2023/02/11 08:52:47;;;;;;;10.88;3.05;;;;;;;-1.26;81.62;101705.88;6247010;28;20064;-78
2023/02/11 08:55:53;;;;;;;6.93;3.67;;;;;;;-1.44;82.46;101708.19;6258754;28;20041;-75
2023/02/11 08:58:56;;;;;;;4.10;2.65;;;;;;;-1.37;83.46;101710.00;6247279;28;20045;-75
2023/02/11 09:01:57;;;;;;;5.72;3.40;;;;;;;-1.53;82.61;101716.59;6255477;28;20474;-75
2023/02/11 09:04:58;;;;;;;12.40;3.97;;;;;;;-1.56;83.60;101713.13;6271360;28;20068;-75
2023/02/11 09:08:01;;;;;;;11.25;5.30;;;;;;;-1.30;83.51;101710.94;6271210;28;20043;-75
2023/02/11 09:24:07;;;;;;;22.70;10.02;;;;;;;-0.93;83.31;101676.41;6319589;27;20374;-78
2023/02/11 09:27:11;;;;;;;14.20;5.32;;;;;;;-0.95;81.44;101669.56;6317300;28;20045;-74
2023/02/11 09:30:12;;;;;;;6.97;4.35;;;;;;;-1.06;82.35;101651.50;6317254;28;20047;-77
2023/02/11 09:33:12;;;;;;;11.10;5.45;;;;;;;-1.22;83.90;101660.69;6318241;28;20048;-73
2023/02/11 09:36:16;;;;;;;10.57;5.82;;;;;;;-1.22;85.61;101668.38;6318262;28;20396;-73
2023/02/11 09:39:19;;;;;;;6.65;4.18;;;;;;;-1.25;85.36;101658.09;6316972;28;20040;-79
2023/02/11 09:42:29;;;;;;;9.50;5.38;;;;;;;-0.96;85.92;101658.47;6318088;28;20507;-78
2023/02/11 09:45:31;;;;;;;15.80;7.97;;;;;;;-0.90;84.13;101655.13;6317916;28;20041;-73
2023/02/11 09:48:41;;;;;;;10.35;5.70;;;;;;;-0.36;82.40;101653.97;6325039;28;20066;-78
2023/02/11 09:51:56;;;;;;;18.50;7.85;;;;;;;-0.39;83.36;101642.81;6330929;28;20040;-74
2023/02/11 09:55:00;;;;;;;26.13;11.60;;;;;;;-0.31;81.62;101639.50;6324891;28;20043;-78
2023/02/11 09:58:04;;;;;;;20.15;7.55;;;;;;;-0.02;80.77;101631.19;6325969;28;20430;-74
2023/02/11 10:01:36;;;;;;;13.25;6.63;;;;;;;-0.02;79.99;101628.63;6322890;28;20534;-79
2023/02/11 10:05:21;;;;;;;23.02;8.07;;;;;;;0.21;79.61;101636.50;6338328;28;20422;-74
2023/02/11 10:08:58;;;;;;;8.07;5.43;;;;;;;0.52;78.87;101616.13;6341759;28;20077;-79
2023/02/11 10:12:20;;;;;;;13.65;6.57;;;;;;;0.34;80.21;101609.19;6341232;28;20071;-74
2023/02/11 10:15:55;;;;;;;13.43;7.95;;;;;;;0.65;77.99;101614.47;6333074;28;20125;-74
2023/02/11 10:19:15;;;;;;;6.93;4.47;;;;;;;0.08;79.35;101611.56;6328946;28;20486;-74
2023/02/11 10:34:54;;;;;;;17.30;8.95;;;;;;;0.65;77.83;101606.78;6257805;27;1356804;-80
2023/02/11 10:37:56;;;;;;;15.75;7.45;;;;;;;0.55;78.70;101591.31;6288587;28;20045;-76
2023/02/11 10:40:56;;;;;;;23.55;6.68;;;;;;;0.68;78.46;101584.53;6289098;28;20039;-75
2023/02/11 10:44:00;;;;;;;9.23;5.32;;;;;;;0.57;79.31;101589.59;6289100;28;20059;-76
2023/02/11 10:47:08;;;;;;;5.63;3.20;;;;;;;0.63;79.64;101593.91;6288997;28;20497;-74
2023/02/11 10:50:32;;;;;;;12.35;4.50;;;;;;;0.75;80.01;101581.13;6271115;28;20415;-74
2023/02/11 10:53:38;;;;;;;6.68;4.43;;;;;;;0.54;80.18;101571.63;6288016;28;20064;-80
2023/02/11 10:56:48;;;;;;;20.80;11.65;;;;;;;0.46;80.22;101567.31;6288811;28;20045;-79
2023/02/11 10:59:57;;;;;;;12.93;8.57;;;;;;;0.61;79.75;101559.66;6288596;28;20121;-80
2023/02/11 11:03:00;;;;;;;18.65;6.63;;;;;;;0.68;79.20;101563.09;6270856;28;20465;-73
2023/02/11 11:06:06;;;;;;;34.22;11.52;;;;;;;0.63;80.20;101554.53;6289127;28;20045;-76
2023/02/11 11:09:26;;;;;;;8.77;3.92;;;;;;;0.80;81.18;101548.59;6288988;28;20066;-76
2023/02/11 11:12:47;;;;;;;20.50;6.75;;;;;;;0.93;79.07;101534.06;6288890;28;20094;-75
2023/02/11 11:16:08;;;;;;;16.90;7.60;;;;;;;0.88;78.35;101540.91;6273775;28;20044;-78
2023/02/11 11:19:08;;;;;;;7.43;4.50;;;;;;;1.01;77.89;101536.66;6287614;28;20049;-73
2023/02/11 11:22:21;;;;;;;11.05;6.57;;;;;;;1.37;76.71;101530.69;6287377;28;20056;-79
2023/02/11 11:25:29;;;;;;;14.07;7.05;;;;;;;1.54;75.57;101535.00;6288712;28;20041;-80
2023/02/11 11:28:41;;;;;;;10.75;4.43;;;;;;;1.32;75.53;101517.00;6287454;28;20041;-78
2023/02/11 11:31:46;;;;;;;16.63;6.82;;;;;;;1.76;76.01;101523.81;6288563;28;20041;-78
2023/02/11 11:34:50;;;;;;;9.60;5.20;;;;;;;1.52;75.50;101509.25;6276505;28;20452;-78
2023/02/11 11:37:59;;;;;;;11.63;6.68;;;;;;;1.66;75.07;101503.25;6270814;28;20116;-74
2023/02/11 11:41:18;;;;;;;12.93;7.13;;;;;;;1.57;75.28;101504.13;6271776;28;20129;-74
2023/02/11 11:44:31;;;;;;;13.65;7.85;;;;;;;1.61;76.01;101492.97;6270711;28;20399;-78
2023/02/11 11:47:40;;;;;;;11.63;5.70;;;;;;;1.67;75.87;101498.13;6271511;28;20052;-74
2023/02/11 11:50:41;;;;;;;11.80;4.75;;;;;;;1.80;75.28;101494.66;6270298;28;20062;-74
2023/02/11 11:54:03;;;;;;;11.23;5.43;;;;;;;1.76;74.84;101490.38;6249670;28;20049;-74
2023/02/11 11:57:14;;;;;;;9.32;5.35;;;;;;;1.72;74.46;101496.38;6251164;28;20052;-74
2023/02/11 12:00:44;;;;;;;23.10;6.75;;;;;;;1.65;74.39;101489.53;6253134;28;20048;-79
2023/02/11 12:04:05;;;;;;;11.98;5.53;;;;;;;1.53;75.44;101466.41;6270851;28;20492;-74
2023/02/11 12:07:15;;;;;;;10.50;5.82;;;;;;;1.82;74.74;101468.91;6253980;28;20056;-79
2023/02/11 12:10:46;;;;;;;14.75;6.55;;;;;;;1.92;74.19;101467.19;6245136;28;20049;-74
2023/02/11 12:14:08;;;;;;;13.52;6.35;;;;;;;1.84;74.72;101462.06;6228879;28;20129;-79
2023/02/11 12:17:34;;;;;;;17.80;7.77;;;;;;;1.93;74.42;101456.03;6246150;28;20138;-74
2023/02/11 12:20:56;;;;;;;14.20;4.93;;;;;;;2.11;74.00;101449.97;6245918;28;20041;-79
2023/02/11 12:24:22;;;;;;;14.17;7.43;;;;;;;2.24;73.12;101448.19;6246065;28;20058;-74
2023/02/11 12:27:44;;;;;;;10.65;5.55;;;;;;;2.41;72.18;101439.53;6251972;28;20613;-79
2023/02/11 12:30:47;;;;;;;10.63;5.72;;;;;;;2.80;71.28;101441.84;6252242;28;20116;-75
2023/02/11 12:34:07;;;;;;;15.85;5.13;;;;;;;3.06;70.21;101438.25;6249773;28;20128;-78
2023/02/11 12:37:35;;;;;;;12.65;5.70;;;;;;;3.16;69.74;101430.41;6240123;28;20128;-79
2023/02/11 12:40:50;;;;;;;13.25;4.70;;;;;;;3.34;68.44;101425.97;6315332;28;20045;-76
2023/02/11 12:43:51;;;;;;;15.18;7.07;;;;;;;3.38;67.43;101425.09;6246592;28;20052;-79
2023/02/11 12:47:07;;;;;;;12.02;5.60;;;;;;;3.26;66.74;101418.31;6246125;28;20049;-75
2023/02/11 12:50:24;;;;;;;15.75;6.50;;;;;;;3.36;66.83;101407.03;6228195;28;20495;-75
2023/02/11 12:53:37;;;;;;;11.10;5.43;;;;;;;3.49;66.57;101396.59;6261219;28;20365;-75
2023/02/11 12:56:45;;;;;;;15.35;6.93;;;;;;;3.56;66.53;101400.78;6263937;28;20115;-79
2023/02/11 13:00:21;;;;;;;10.57;6.70;;;;;;;3.49;65.62;101400.00;6250194;28;20041;-79
2023/02/11 13:03:45;;;;;;;8.77;5.50;;;;;;;3.28;65.87;101366.69;6268941;28;20041;-75
2023/02/11 13:06:50;;;;;;;9.77;6.32;;;;;;;3.47;66.26;101367.34;6252100;28;20131;-75
2023/02/11 13:10:00;;;;;;;12.43;5.72;;;;;;;3.39;64.85;101355.38;6269985;28;20400;-75
2023/02/11 13:13:15;;;;;;;8.65;4.38;;;;;;;3.42;64.77;101345.03;6252295;28;20075;-75
2023/02/11 13:16:29;;;;;;;13.82;5.45;;;;;;;3.59;64.53;101333.69;6269734;28;20488;-80
2023/02/11 13:19:38;;;;;;;12.18;4.47;;;;;;;3.52;64.78;101326.84;6269928;28;20475;-75
2023/02/11 13:22:45;;;;;;;8.27;4.38;;;;;;;3.45;65.22;101313.19;6269948;28;20056;-80
2023/02/11 13:25:56;;;;;;;8.80;5.38;;;;;;;3.60;64.74;101318.19;6252103;28;20425;-80
2023/02/11 13:29:19;;;;;;;9.73;4.60;;;;;;;3.58;64.87;101316.47;6252050;28;20049;-75
2023/02/11 13:32:21;;;;;;;7.82;5.63;;;;;;;3.54;64.84;101307.03;6269386;28;20041;-80
2023/02/11 13:35:36;;;;;;;15.20;7.75;;;;;;;3.63;65.10;101310.38;6269746;28;20041;-75
2023/02/11 13:38:38;;;;;;;20.40;6.63;;;;;;;3.75;64.96;101319.72;6251629;28;20397;-75
2023/02/11 13:41:40;;;;;;;22.15;7.63;;;;;;;4.15;64.50;101345.00;6243750;28;20037;-79
2023/02/11 13:44:41;;;;;;;;;;;;;;;4.04;64.21;101352.06;6245287;28;20520;-79
2023/02/11 13:47:42;;;;;;;11.63;5.85;;;;;;;4.22;64.00;101361.25;6231376;28;19920;-79
2023/02/11 13:50:49;;;;;;;9.40;5.63;;;;;;;4.24;63.75;101341.41;6245130;28;20515;-79
2023/02/11 13:53:57;;;;;;;15.15;4.28;;;;;;;3.97;64.67;101330.59;6230404;28;20480;-79
2023/02/11 13:57:20;;;;;;;9.77;5.53;;;;;;;3.91;64.52;101320.38;6250963;28;20052;-75
2023/02/11 14:00:33;;;;;;;11.02;5.90;;;;;;;3.75;65.35;101308.53;6268788;28;20045;-78
2023/02/11 14:10:59;;;;;;;15.65;4.82;;;;;;;3.86;65.73;101296.31;6244079;28;20044;-79
2023/02/11 14:14:02;;;;;;;9.85;4.35;;;;;;;3.71;65.01;101281.06;6241208;28;20044;-80
2023/02/11 14:17:06;;;;;;;8.63;5.20;;;;;;;3.73;64.82;101284.47;6268380;28;20040;-76
2023/02/11 14:20:52;;;;;;;8.57;4.95;;;;;;;3.80;65.72;101279.19;6243647;28;20053;-79
2023/02/11 14:24:03;;;;;;;8.00;4.63;;;;;;;3.59;65.57;101276.88;6143439;28;20047;-80
2023/02/11 14:27:07;;;;;;;13.95;6.90;;;;;;;3.59;66.03;101285.47;6158236;28;20109;-75
2023/02/11 14:30:26;;;;;;;20.40;9.35;;;;;;;3.58;67.07;101293.22;6253260;28;20048;-79
2023/02/11 14:33:58;;;;;;;17.85;9.50;;;;;;;3.53;67.34;101292.44;6248507;28;20064;-76
2023/02/11 14:37:09;;;;;;;17.40;9.15;;;;;;;3.51;67.88;101278.72;6259164;28;20068;-76
2023/02/11 14:40:15;;;;;;;44.00;12.40;;;;;;;3.43;67.73;101278.78;6251395;28;20045;-76
2023/02/11 14:43:21;;;;;;;20.20;8.27;;;;;;;3.40;67.30;101271.09;6235326;28;20068;-80
2023/02/11 14:46:24;;;;;;;7.70;4.88;;;;;;;3.46;67.45;101267.56;6241050;28;20472;-76
2023/02/11 14:49:38;;;;;;;7.88;4.68;;;;;;;3.52;66.85;101264.91;6244447;28;20573;-80
2023/02/11 14:52:42;;;;;;;10.02;5.47;;;;;;;3.48;66.97;101258.97;6259275;28;20045;-80
2023/02/11 14:55:47;;;;;;;10.82;6.40;;;;;;;3.39;66.71;101259.91;6231754;28;20045;-81
2023/02/11 14:58:50;;;;;;;17.52;7.70;;;;;;;3.62;66.00;101269.97;6229157;28;20072;-80
2023/02/11 15:01:55;;;;;;;14.13;5.65;;;;;;;3.53;66.08;101279.53;6226125;28;20128;-80
2023/02/11 15:05:18;;;;;;;14.82;6.93;;;;;;;3.61;66.11;101280.31;6243929;28;20052;-80